Orlando, FL

3:45 AM EST on February 11, 2016 (GMT -0500)
Executive | | Change Station
CLOSE
Current Station
Airport
Location: Orlando,
Elevation: 112 ft
Nearby Weather Stations
Active Advisory: Frost Advisory

Elev 112 ft 28.55 °N, 81.33 °W | Updated 52 minutes ago

Clear
Clear
40 °F
Feels Like 37 °F
N
5
Wind Variable Wind from SSW

Today
High -- | Low -- °F
--% Chance of Precip.
Yesterday
High -- | Low -- °F
Precip. -- in
Pressure 30.26 in
Visibility 10.0 miles
Clouds Clear
Windchill 37 °F
Dew Point 32 °F
Humidity 73%
Rainfall 0.00 in
Snow Depth Not available.
7:07 AM 6:12 PM
Waxing Crescent, 10% visible
METAR KORL 110753Z AUTO 21004KT 10SM CLR 04/00 A3024 RMK AO2 SLP245 T00440000
Pressure 30.26 in
Visibility 10.0 miles
Clouds Clear
Windchill 37 °F
Dew Point 32 °F
Humidity 73%
Rainfall 0.00 in
Snow Depth Not available.
7:07 AM 6:12 PM
Waxing Crescent, 10% visible
METAR KORL 110753Z AUTO 21004KT 10SM CLR 04/00 A3024 RMK AO2 SLP245 T00440000

10-Day Weather Forecast

Almanac

Astronomy

Feb. 11, 2016 Rise Set
Actual Time
Civil Twilight
Nautical Twilight
Astronomical Twilight
Moon
Length of Visible Light
Length of Day
Tomorrow will be .
, % of the Moon is Illuminated

Today's Extremes

State Highs State Lows

Community

WunderPhotos

Upload Photos

1,892,030 photos uploaded!

WunderBlog® & News

Nearby

Air Quality

  Air Quality AQ Index Pollutant
Not available.

Snow Depth

Station Depth Elevation

Earthquake Activity

City Distance Mag. Time & Date
Minimum magnitude displayed is 2.5.

Coastal Water Temperatures

Place Temperature

Stations

Nearby Weather Stations

Station Location Temp. Windchill Dew Point Humidity Wind Precip. Elev Updated Type
                   

Watches & Warnings

Frost Advisory
Issued: 6:53 PM EST Feb. 10, 2016 – National Weather Service

... Frost advisory remains in effect from 3 am to 9 am EST
Thursday...

* temperature... temperatures will fall rapidly this evening with
widespread overnight lows in the middle 30s allowing areas of
frost to develop late in the overnight into early morning
Thursday.

* Impacts... appropriate action should be taken to protect plants
and sensitive vegetation from the frosty conditions tonight.
Also many home fires occur during cold weather episodes. Use
extreme caution with space heaters. Keep them away from
combustible material such as blankets... pillows and curtains.

Precautionary/preparedness actions...

A frost advisory means that widespread frost is expected.
Sensitive outdoor plants may be killed if left uncovered.



67